createdAt,value
2018-03-14T00:00:48.363Z,9.97
2018-03-14T00:03:15.504Z,10.53
2018-03-14T00:05:41.861Z,10.70
2018-03-14T00:08:08.205Z,10.00
2018-03-14T00:10:35.345Z,10.00
2018-03-14T00:13:01.690Z,10.37
2018-03-14T00:15:28.068Z,10.23
2018-03-14T00:17:55.160Z,10.43
2018-03-14T00:20:22.316Z,9.70
2018-03-14T00:22:49.407Z,9.57
2018-03-14T00:25:15.803Z,9.10
2018-03-14T00:27:49.206Z,9.80
2018-03-14T00:30:16.316Z,9.40
2018-03-14T00:32:42.782Z,10.13
2018-03-14T00:35:09.122Z,10.33
2018-03-14T00:37:36.199Z,9.57
2018-03-14T00:40:02.598Z,9.97
2018-03-14T00:42:29.675Z,9.10
2018-03-14T00:44:56.774Z,9.97
2018-03-14T00:47:23.105Z,11.43
2018-03-14T00:49:49.476Z,9.80
2018-03-14T00:52:16.600Z,10.27
2018-03-14T00:54:42.957Z,9.87
2018-03-14T00:57:09.364Z,10.23
2018-03-14T00:59:35.708Z,12.37
2018-03-14T01:02:02.830Z,11.70
2018-03-14T01:04:29.158Z,11.23
2018-03-14T01:06:55.526Z,10.93
2018-03-14T01:09:21.880Z,12.30
2018-03-14T01:11:48.250Z,10.70
2018-03-14T01:14:14.614Z,11.63
2018-03-14T01:16:41.182Z,11.23
2018-03-14T01:19:07.505Z,11.07
2018-03-14T01:21:34.597Z,11.20
2018-03-14T01:24:01.146Z,11.63
2018-03-14T01:26:27.498Z,11.83
2018-03-14T01:28:53.809Z,12.47
2018-03-14T01:31:20.177Z,11.30
2018-03-14T01:33:46.550Z,11.57
2018-03-14T01:36:12.940Z,11.43
2018-03-14T01:38:39.310Z,11.87
2018-03-14T01:41:05.653Z,11.70
2018-03-14T01:43:32.018Z,13.53
2018-03-14T01:45:58.387Z,11.90
2018-03-14T01:48:24.860Z,12.00
2018-03-14T01:50:51.306Z,11.90
2018-03-14T01:53:27.666Z,12.03
2018-03-14T01:55:54.778Z,12.00
2018-03-14T01:58:21.148Z,11.63
2018-03-14T02:00:47.535Z,12.80
2018-03-14T02:03:13.916Z,12.80
2018-03-14T02:05:40.270Z,12.73
2018-03-14T02:08:06.682Z,13.57
2018-03-14T02:10:33.062Z,12.40
2018-03-14T02:12:59.415Z,13.47
2018-03-14T02:15:25.759Z,13.67
2018-03-14T02:17:52.884Z,14.80
2018-03-14T02:20:19.225Z,15.10
2018-03-14T02:22:46.346Z,14.20
2018-03-14T02:25:12.700Z,14.30
2018-03-14T02:27:39.088Z,16.00
2018-03-14T02:30:05.453Z,14.43
2018-03-14T02:32:31.924Z,15.93
2018-03-14T02:34:59.103Z,16.70
2018-03-14T02:37:25.434Z,17.03
2018-03-14T02:39:51.805Z,16.93
2018-03-14T02:42:18.148Z,16.40
2018-03-14T02:44:44.520Z,15.77
2018-03-14T02:47:11.600Z,14.93
2018-03-14T02:49:37.960Z,16.40
2018-03-14T02:52:04.320Z,15.90
2018-03-14T02:54:30.663Z,15.17
2018-03-14T02:56:57.942Z,16.10
2018-03-14T02:59:24.334Z,17.70
2018-03-14T03:01:50.647Z,17.27
2018-03-14T03:04:16.981Z,17.30
2018-03-14T03:06:44.283Z,16.70
2018-03-14T03:09:11.544Z,17.43
2018-03-14T03:11:37.934Z,17.63
2018-03-14T03:14:05.049Z,18.40
2018-03-14T03:16:31.403Z,17.30
2018-03-14T03:18:57.741Z,18.40
2018-03-14T03:21:24.941Z,17.23
2018-03-14T03:23:51.288Z,17.43
2018-03-14T03:26:17.647Z,18.20
2018-03-14T03:28:43.982Z,20.40
2018-03-14T03:31:11.084Z,16.50
2018-03-14T03:33:37.402Z,17.83
2018-03-14T03:36:03.762Z,18.13
2018-03-14T03:38:30.105Z,17.80
2018-03-14T03:40:56.479Z,18.17
2018-03-14T03:43:23.544Z,19.23
2018-03-14T03:45:49.900Z,18.17
2018-03-14T03:48:16.209Z,18.67
2018-03-14T03:50:42.560Z,19.10
2018-03-14T03:53:08.875Z,17.30
2018-03-14T03:55:35.232Z,19.23
2018-03-14T03:58:01.560Z,18.30
2018-03-14T04:00:27.906Z,18.13
2018-03-14T04:02:54.221Z,17.60
2018-03-14T04:05:20.593Z,17.27
2018-03-14T04:07:46.979Z,18.20
2018-03-14T04:10:14.077Z,18.07
2018-03-14T04:12:40.439Z,17.23
2018-03-14T04:15:06.802Z,16.80
2018-03-14T04:17:33.143Z,18.00
2018-03-14T04:19:59.458Z,18.03
2018-03-14T04:22:25.814Z,17.50
2018-03-14T04:24:52.881Z,18.07
2018-03-14T04:27:20.003Z,18.53
2018-03-14T04:29:46.335Z,17.60
2018-03-14T04:32:12.669Z,16.70
2018-03-14T04:34:39.793Z,16.20
2018-03-14T04:37:06.610Z,16.03
2018-03-14T04:39:32.938Z,17.67
2018-03-14T04:41:59.277Z,15.37
2018-03-14T04:44:26.450Z,16.60
2018-03-14T04:46:52.781Z,16.60
2018-03-14T04:49:19.101Z,16.70
2018-03-14T04:51:45.424Z,16.17
2018-03-14T04:54:11.740Z,15.03
2018-03-14T04:56:38.073Z,14.40
2018-03-14T04:59:04.401Z,15.00
2018-03-14T05:01:30.778Z,16.00
2018-03-14T05:03:57.876Z,14.60
2018-03-14T05:06:24.183Z,15.43
2018-03-14T05:08:51.264Z,15.90
2018-03-14T05:11:18.329Z,15.60
2018-03-14T05:13:44.654Z,17.10
2018-03-14T05:16:10.991Z,15.73
2018-03-14T05:18:37.335Z,15.63
2018-03-14T05:21:04.443Z,16.87
2018-03-14T05:23:30.788Z,15.50
2018-03-14T05:25:57.111Z,16.83
2018-03-14T05:28:23.456Z,17.23
2018-03-14T05:30:49.782Z,17.27
2018-03-14T05:33:16.866Z,16.57
2018-03-14T05:35:43.196Z,18.07
2018-03-14T05:38:09.555Z,18.70
2018-03-14T05:40:35.930Z,18.30
2018-03-14T05:43:02.304Z,18.33
2018-03-14T05:45:29.356Z,17.80
2018-03-14T05:47:56.465Z,16.53
2018-03-14T05:50:22.811Z,17.90
2018-03-14T05:52:49.958Z,18.70
2018-03-14T05:55:17.080Z,18.93
2018-03-14T05:57:43.421Z,18.90
2018-03-14T06:00:10.078Z,18.80
2018-03-14T06:02:36.675Z,19.07
2018-03-14T06:05:03.037Z,16.83
2018-03-14T06:07:29.346Z,19.60
2018-03-14T06:09:55.671Z,17.63
2018-03-14T06:12:22.064Z,17.73
2018-03-14T06:14:49.176Z,16.90
2018-03-14T06:17:15.515Z,17.53
2018-03-14T06:19:41.862Z,18.00
2018-03-14T06:22:08.967Z,16.00
2018-03-14T06:24:35.334Z,17.60
2018-03-14T06:27:01.660Z,17.73
2018-03-14T06:29:28.777Z,17.07
2018-03-14T06:31:55.115Z,15.30
2018-03-14T06:34:21.473Z,17.23
2018-03-14T06:36:47.848Z,17.30
2018-03-14T06:39:14.167Z,15.87
2018-03-14T06:41:40.493Z,14.83
2018-03-14T06:44:07.590Z,15.70
2018-03-14T06:46:33.907Z,14.70
2018-03-14T06:49:00.245Z,16.63
2018-03-14T06:51:26.570Z,16.03
2018-03-14T06:53:53.656Z,14.80
2018-03-14T06:56:19.986Z,16.33
2018-03-14T06:58:58.802Z,15.50
2018-03-14T07:01:38.223Z,17.07
2018-03-14T07:04:16.767Z,16.87
2018-03-14T07:06:43.051Z,17.23
2018-03-14T07:09:09.491Z,16.50
2018-03-14T07:11:35.825Z,16.47
2018-03-14T07:14:02.186Z,15.50
2018-03-14T07:16:28.535Z,16.30
2018-03-14T07:18:54.887Z,17.20
2018-03-14T07:21:21.243Z,16.33
2018-03-14T07:23:47.575Z,17.40
2018-03-14T07:26:13.949Z,16.03
2018-03-14T07:28:41.069Z,16.40
2018-03-14T07:31:07.432Z,17.37
2018-03-14T07:33:34.563Z,17.47
2018-03-14T07:36:02.422Z,18.53
2018-03-14T07:38:28.829Z,16.63
2018-03-14T07:40:55.414Z,16.40
2018-03-14T07:43:21.734Z,16.03
2018-03-14T07:45:48.038Z,16.97
2018-03-14T07:48:14.381Z,15.47
2018-03-14T07:50:41.463Z,15.03
2018-03-14T07:53:08.545Z,15.77
2018-03-14T07:55:34.870Z,16.47
2018-03-14T07:58:01.233Z,14.30
2018-03-14T08:00:27.542Z,15.60
2018-03-14T08:02:53.895Z,16.40
2018-03-14T08:05:20.276Z,15.73
2018-03-14T08:07:47.455Z,16.23
2018-03-14T08:10:13.798Z,13.80
2018-03-14T08:12:40.153Z,14.30
2018-03-14T08:15:06.487Z,13.60
2018-03-14T08:17:34.313Z,14.13
2018-03-14T08:20:00.647Z,14.10
2018-03-14T08:22:27.027Z,13.67
2018-03-14T08:24:54.106Z,13.67
2018-03-14T08:27:20.410Z,12.23
2018-03-14T08:29:47.490Z,11.40
2018-03-14T08:32:13.830Z,9.97
2018-03-14T08:34:40.171Z,9.50
2018-03-14T08:37:06.492Z,9.67
2018-03-14T08:39:32.839Z,9.83
2018-03-14T08:41:59.162Z,9.87
2018-03-14T08:44:25.496Z,9.57
2018-03-14T08:46:51.942Z,8.80
2018-03-14T08:49:18.301Z,9.63
2018-03-14T08:51:45.350Z,9.53
2018-03-14T08:54:12.452Z,9.03
2018-03-14T08:56:38.790Z,9.60
2018-03-14T08:59:05.134Z,8.93
2018-03-14T09:01:31.470Z,9.43
2018-03-14T09:03:58.061Z,8.07
2018-03-14T09:06:25.127Z,7.10
2018-03-14T09:08:51.489Z,7.83
2018-03-14T09:11:17.819Z,8.00
2018-03-14T09:13:44.166Z,8.63
2018-03-14T09:16:11.228Z,7.87
2018-03-14T09:18:37.590Z,6.93
2018-03-14T09:21:04.641Z,7.40
2018-03-14T09:23:30.984Z,8.00
2018-03-14T09:25:57.356Z,6.47
2018-03-14T09:28:23.727Z,7.27
2018-03-14T09:30:50.068Z,7.87
2018-03-14T09:33:16.406Z,7.97
2018-03-14T09:35:42.806Z,7.33
2018-03-14T09:38:09.136Z,6.17
2018-03-14T09:40:35.481Z,6.20
2018-03-14T09:43:01.832Z,6.30
2018-03-14T09:45:28.204Z,6.47
2018-03-14T09:47:55.348Z,6.30
2018-03-14T09:50:22.544Z,6.10
2018-03-14T09:52:48.877Z,6.73
2018-03-14T09:55:15.229Z,5.90
2018-03-14T09:57:41.536Z,6.07
2018-03-14T10:00:08.003Z,6.33
2018-03-14T10:02:34.401Z,6.37
2018-03-14T10:05:00.734Z,6.10
2018-03-14T10:07:27.066Z,7.40
2018-03-14T10:09:53.410Z,6.80
2018-03-14T10:12:19.754Z,7.10
2018-03-14T10:14:46.079Z,6.43
2018-03-14T10:17:12.541Z,6.53
2018-03-14T10:19:38.902Z,6.87
2018-03-14T10:22:05.264Z,6.70
2018-03-14T10:24:31.578Z,6.50
2018-03-14T10:26:57.919Z,5.90
2018-03-14T10:29:24.273Z,6.07
2018-03-14T10:31:50.632Z,6.90
2018-03-14T10:34:17.820Z,5.80
2018-03-14T10:36:44.196Z,5.70
2018-03-14T10:39:10.482Z,5.67
2018-03-14T10:41:36.817Z,5.90
2018-03-14T10:44:03.203Z,5.57
2018-03-14T10:46:30.311Z,5.30
2018-03-14T10:48:56.658Z,5.17
2018-03-14T10:51:22.998Z,5.00
2018-03-14T10:53:49.339Z,5.77
2018-03-14T10:56:16.635Z,6.03
2018-03-14T10:58:43.725Z,5.93
2018-03-14T11:01:10.834Z,5.53
2018-03-14T11:03:43.509Z,5.73
2018-03-14T11:06:09.860Z,5.50
2018-03-14T11:08:36.234Z,4.80
2018-03-14T11:11:03.322Z,4.73
2018-03-14T11:13:29.691Z,4.63
2018-03-14T11:15:56.020Z,5.03
2018-03-14T11:18:23.842Z,4.60
2018-03-14T11:20:50.182Z,4.13
2018-03-14T11:23:16.550Z,4.40
2018-03-14T11:25:43.627Z,4.70
2018-03-14T11:28:10.713Z,4.30
2018-03-14T11:30:37.047Z,4.20
2018-03-14T11:33:03.434Z,6.30
2018-03-14T11:35:29.742Z,6.50
2018-03-14T11:37:56.834Z,6.53
2018-03-14T11:40:23.164Z,6.30
2018-03-14T11:42:49.496Z,5.97
2018-03-14T11:45:15.844Z,6.87
2018-03-14T11:47:42.970Z,5.47
2018-03-14T11:50:09.648Z,6.50
2018-03-14T11:52:35.991Z,6.20
2018-03-14T11:55:02.338Z,6.33
2018-03-14T11:57:28.667Z,6.63
2018-03-14T11:59:54.999Z,6.20
2018-03-14T12:02:21.314Z,5.90
2018-03-14T12:04:47.673Z,6.37
2018-03-14T12:07:14.745Z,6.50
2018-03-14T12:09:41.095Z,6.77
2018-03-14T12:12:07.421Z,6.70
2018-03-14T12:14:33.740Z,8.17
2018-03-14T12:17:00.070Z,7.90
2018-03-14T12:19:27.193Z,7.63
2018-03-14T12:21:53.579Z,8.60
2018-03-14T12:24:19.935Z,7.63
2018-03-14T12:26:46.321Z,8.20
2018-03-14T12:29:12.770Z,8.10
2018-03-14T12:31:39.073Z,8.97
2018-03-14T12:34:05.409Z,8.93
2018-03-14T12:36:31.732Z,8.83
2018-03-14T12:38:58.068Z,8.97
2018-03-14T12:41:24.418Z,8.30
2018-03-14T12:43:50.806Z,9.33
2018-03-14T12:46:17.151Z,8.67
2018-03-14T12:48:43.491Z,9.47
2018-03-14T12:51:10.022Z,9.47
2018-03-14T12:53:36.331Z,10.00
2018-03-14T12:56:03.419Z,10.10
2018-03-14T12:58:29.769Z,9.20
2018-03-14T13:00:57.618Z,9.10
2018-03-14T13:03:23.951Z,9.07
2018-03-14T13:05:50.571Z,9.47
2018-03-14T13:08:16.910Z,9.20
2018-03-14T13:10:43.264Z,10.50
2018-03-14T13:13:09.603Z,9.43
2018-03-14T13:15:35.970Z,8.50
2018-03-14T13:18:02.331Z,8.23
2018-03-14T13:20:28.778Z,8.30
2018-03-14T13:22:55.367Z,8.87
2018-03-14T13:25:22.482Z,8.40
2018-03-14T13:27:48.838Z,8.00
2018-03-14T13:30:15.929Z,7.97
2018-03-14T13:32:42.262Z,8.17
2018-03-14T13:35:08.601Z,7.87
2018-03-14T13:37:36.563Z,8.90
2018-03-14T13:40:02.973Z,8.60
2018-03-14T13:42:29.356Z,8.70
2018-03-14T13:44:55.695Z,8.60
2018-03-14T13:47:22.048Z,9.00
2018-03-14T13:49:49.144Z,8.20
2018-03-14T13:52:15.676Z,10.20
2018-03-14T13:54:41.997Z,9.43
2018-03-14T13:57:08.334Z,8.90
2018-03-14T13:59:34.658Z,8.53
2018-03-14T14:02:00.987Z,8.70
2018-03-14T14:04:27.309Z,8.87
2018-03-14T14:06:53.655Z,9.40
2018-03-14T14:09:21.501Z,8.50
2018-03-14T14:11:48.619Z,9.97
2018-03-14T14:14:15.103Z,9.93
2018-03-14T14:16:41.437Z,9.30
2018-03-14T14:19:07.912Z,10.00
2018-03-14T14:21:35.126Z,10.00
2018-03-14T14:24:01.440Z,9.07
2018-03-14T14:26:27.847Z,10.47
2018-03-14T14:28:54.894Z,8.80
2018-03-14T14:31:21.969Z,9.27
2018-03-14T14:33:48.309Z,10.60
2018-03-14T14:36:14.641Z,9.50
2018-03-14T14:38:40.969Z,9.63
2018-03-14T14:41:07.295Z,8.83
2018-03-14T14:43:33.688Z,8.07
2018-03-14T14:46:00.023Z,8.00
2018-03-14T14:48:27.108Z,8.90
2018-03-14T14:50:53.437Z,8.60
2018-03-14T14:53:19.769Z,8.10
2018-03-14T14:55:46.104Z,8.07
2018-03-14T14:58:12.437Z,7.93
2018-03-14T15:00:38.790Z,7.67
2018-03-14T15:03:05.905Z,8.27
2018-03-14T15:05:32.638Z,8.00
2018-03-14T15:07:59.023Z,8.00
2018-03-14T15:10:26.130Z,7.50
2018-03-14T15:12:52.544Z,7.60
2018-03-14T15:15:18.949Z,7.27
2018-03-14T15:17:46.043Z,7.23
2018-03-14T15:20:12.407Z,7.80
2018-03-14T15:22:39.508Z,6.80
2018-03-14T15:25:05.849Z,7.10
2018-03-14T15:27:32.193Z,6.73
2018-03-14T15:29:58.524Z,7.60
2018-03-14T15:32:24.852Z,7.27
2018-03-14T15:34:51.224Z,7.53
2018-03-14T15:37:18.318Z,7.57
2018-03-14T15:39:44.676Z,7.90
2018-03-14T15:42:10.999Z,8.40
2018-03-14T15:44:38.139Z,8.30
2018-03-14T15:47:04.470Z,7.30
2018-03-14T15:49:30.843Z,8.70
2018-03-14T15:51:57.908Z,8.27
2018-03-14T15:54:24.323Z,9.20
2018-03-14T15:56:51.448Z,7.90
2018-03-14T15:59:18.716Z,8.00
2018-03-14T16:01:45.098Z,8.20
2018-03-14T16:04:11.428Z,8.60
2018-03-14T16:06:37.751Z,8.00
2018-03-14T16:09:04.139Z,8.37
2018-03-14T16:11:31.193Z,8.00
2018-03-14T16:13:57.645Z,8.33
2018-03-14T16:18:44.706Z,8.83
2018-03-14T16:21:11.070Z,8.50
2018-03-14T16:23:37.405Z,9.30
2018-03-14T16:26:03.818Z,8.53
2018-03-14T16:28:30.172Z,8.70
2018-03-14T16:30:56.525Z,9.60
2018-03-14T16:33:23.672Z,8.97
2018-03-14T16:35:50.958Z,11.83
2018-03-14T16:38:17.333Z,12.57
2018-03-14T16:40:44.465Z,9.40
2018-03-14T16:43:10.827Z,9.70
2018-03-14T16:45:37.165Z,9.33
2018-03-14T16:48:03.521Z,10.83
2018-03-14T16:50:29.854Z,11.60
2018-03-14T16:52:56.232Z,12.80
2018-03-14T16:55:23.346Z,14.20
2018-03-14T16:57:49.683Z,14.60
2018-03-14T17:00:16.091Z,15.47
2018-03-14T17:02:42.566Z,15.13
2018-03-14T17:05:08.999Z,15.27
2018-03-14T17:07:35.332Z,13.80
2018-03-14T17:10:01.647Z,14.50
2018-03-14T17:12:27.998Z,13.87
2018-03-14T17:14:54.302Z,14.17
2018-03-14T17:17:20.709Z,14.37
2018-03-14T17:19:47.018Z,12.83
2018-03-14T17:22:14.120Z,14.00
2018-03-14T17:24:40.473Z,14.27
2018-03-14T17:27:06.826Z,13.63
2018-03-14T17:29:33.898Z,12.93
2018-03-14T17:32:00.369Z,13.43
2018-03-14T17:34:26.711Z,13.27
2018-03-14T17:36:53.767Z,12.80
2018-03-14T17:39:20.103Z,13.50
2018-03-14T17:41:47.194Z,12.00
2018-03-14T17:44:13.543Z,12.20
2018-03-14T17:46:39.879Z,11.63
2018-03-14T17:49:06.262Z,10.70
2018-03-14T17:51:32.623Z,12.20
2018-03-14T17:53:58.980Z,11.47
2018-03-14T17:56:26.095Z,11.10
2018-03-14T17:58:52.435Z,12.87
2018-03-14T18:01:18.771Z,11.90
2018-03-14T18:03:45.132Z,11.83
2018-03-14T18:06:11.463Z,11.90
2018-03-14T18:08:37.798Z,11.90
2018-03-14T18:11:05.023Z,12.87
2018-03-14T18:13:31.367Z,11.27
2018-03-14T18:15:57.731Z,12.60
2018-03-14T18:18:24.938Z,12.30
2018-03-14T18:20:51.255Z,12.03
2018-03-14T18:23:17.602Z,11.30
2018-03-14T18:25:44.003Z,12.50
2018-03-14T18:28:10.360Z,13.00
2018-03-14T18:30:36.695Z,12.90
2018-03-14T18:33:03.045Z,12.70
2018-03-14T18:35:30.123Z,12.13
2018-03-14T18:37:57.198Z,10.83
2018-03-14T18:40:23.562Z,11.07
2018-03-14T18:42:49.904Z,10.73
2018-03-14T18:45:17.010Z,11.17
2018-03-14T18:47:43.339Z,12.03
2018-03-14T18:50:09.693Z,11.43
2018-03-14T18:52:36.747Z,12.93
2018-03-14T18:55:03.117Z,12.37
2018-03-14T18:57:30.239Z,12.97
2018-03-14T18:59:56.615Z,12.50
2018-03-14T19:02:22.969Z,12.97
2018-03-14T19:04:49.315Z,13.80
2018-03-14T19:07:15.636Z,12.73
2018-03-14T19:09:41.976Z,13.43
2018-03-14T19:12:08.307Z,12.20
2018-03-14T19:14:34.651Z,13.00
2018-03-14T19:17:00.987Z,13.63
2018-03-14T19:19:28.154Z,13.90
2018-03-14T19:21:55.235Z,13.53
2018-03-14T19:24:21.567Z,13.93
2018-03-14T19:26:48.691Z,13.77
2018-03-14T19:29:15.732Z,13.87
2018-03-14T19:31:42.846Z,15.60
2018-03-14T19:34:10.037Z,14.83
2018-03-14T19:36:37.097Z,15.90
2018-03-14T19:39:04.185Z,14.73
2018-03-14T19:41:30.761Z,14.73
2018-03-14T19:43:57.897Z,17.52
2018-03-14T19:46:24.293Z,16.90
2018-03-14T19:48:51.394Z,15.77
2018-03-14T19:51:18.543Z,15.43
2018-03-14T19:53:45.233Z,15.20
2018-03-14T19:56:11.698Z,15.37
2018-03-14T19:58:38.074Z,16.27
2018-03-14T20:01:04.429Z,15.20
2018-03-14T20:03:30.749Z,15.20
2018-03-14T20:05:57.344Z,15.10
2018-03-14T20:08:23.690Z,15.57
2018-03-14T20:10:50.788Z,15.70
2018-03-14T20:13:17.128Z,16.03
2018-03-14T20:15:43.553Z,15.40
2018-03-14T20:18:09.908Z,14.70
2018-03-14T20:20:37.021Z,14.13
2018-03-14T20:23:03.350Z,15.23
2018-03-14T20:25:29.696Z,15.20
2018-03-14T20:27:56.034Z,14.17
2018-03-14T20:30:22.485Z,15.83
2018-03-14T20:32:48.921Z,16.23
2018-03-14T20:35:16.002Z,14.47
2018-03-14T20:37:42.338Z,14.17
2018-03-14T20:40:08.663Z,15.20
2018-03-14T20:42:35.126Z,15.27
2018-03-14T20:45:01.455Z,14.80
2018-03-14T20:47:27.828Z,16.00
2018-03-14T20:49:55.055Z,15.30
2018-03-14T20:52:21.490Z,15.73
2018-03-14T20:54:47.830Z,16.87
2018-03-14T20:57:14.174Z,17.73
2018-03-14T20:59:41.225Z,16.07
2018-03-14T21:02:08.314Z,15.93
2018-03-14T21:04:34.630Z,16.57
2018-03-14T21:07:00.974Z,15.50
2018-03-14T21:09:27.376Z,15.43
2018-03-14T21:11:54.457Z,16.10
2018-03-14T21:14:20.814Z,16.57
2018-03-14T21:16:47.145Z,15.27
2018-03-14T21:19:13.490Z,16.03
2018-03-14T21:21:40.585Z,15.87
2018-03-14T21:24:07.212Z,16.23
2018-03-14T21:26:33.536Z,15.73
2018-03-14T21:28:59.945Z,15.23
2018-03-14T21:31:26.294Z,16.40
2018-03-14T21:33:52.653Z,15.77
2018-03-14T21:36:18.986Z,16.80
2018-03-14T21:38:45.326Z,16.20
2018-03-14T21:41:11.669Z,17.80
2018-03-14T21:43:38.022Z,16.70
2018-03-14T21:46:04.367Z,15.93
2018-03-14T21:48:31.445Z,16.70
2018-03-14T21:50:57.843Z,17.60
2018-03-14T21:53:24.131Z,15.83
2018-03-14T21:55:50.572Z,16.20
2018-03-14T21:58:17.583Z,15.10
2018-03-14T22:00:44.628Z,14.50
2018-03-14T22:03:10.955Z,14.47
2018-03-14T22:05:37.280Z,15.13
2018-03-14T22:08:03.618Z,14.40
2018-03-14T22:10:29.966Z,14.87
2018-03-14T22:12:56.306Z,15.03
2018-03-14T22:15:22.633Z,13.97
2018-03-14T22:17:48.976Z,14.17
2018-03-14T22:20:15.298Z,14.37
2018-03-14T22:22:41.604Z,14.43
2018-03-14T22:25:07.917Z,13.47
2018-03-14T22:27:34.981Z,13.30
2018-03-14T22:30:01.317Z,13.40
2018-03-14T22:32:27.650Z,14.60
2018-03-14T22:34:53.990Z,14.07
2018-03-14T22:37:20.327Z,13.07
2018-03-14T22:39:46.658Z,13.30
2018-03-14T22:42:12.977Z,13.30
2018-03-14T22:44:39.317Z,15.30
2018-03-14T22:47:05.743Z,17.10
2018-03-14T22:49:31.989Z,14.90
2018-03-14T22:51:58.344Z,13.63
2018-03-14T22:54:24.693Z,13.27
2018-03-14T22:56:51.782Z,11.87
2018-03-14T22:59:18.131Z,13.70
2018-03-14T23:01:44.463Z,11.30
2018-03-14T23:04:10.780Z,12.57
2018-03-14T23:06:37.115Z,11.37
2018-03-14T23:09:03.470Z,12.17
2018-03-14T23:11:29.811Z,10.90
2018-03-14T23:13:56.134Z,9.23
2018-03-14T23:16:22.467Z,10.60
2018-03-14T23:18:48.786Z,11.30
2018-03-14T23:21:15.095Z,11.60
2018-03-14T23:23:41.418Z,9.73
2018-03-14T23:26:07.759Z,9.20
2018-03-14T23:28:34.091Z,9.20
2018-03-14T23:31:00.431Z,9.30
2018-03-14T23:33:26.739Z,9.67
2018-03-14T23:35:53.071Z,8.40
2018-03-14T23:38:19.397Z,8.83
2018-03-14T23:40:46.463Z,9.60
2018-03-14T23:43:12.780Z,8.50
2018-03-14T23:45:39.124Z,8.30
2018-03-14T23:48:05.496Z,9.87
2018-03-14T23:50:32.568Z,9.30
2018-03-14T23:52:58.885Z,7.70
2018-03-14T23:55:25.934Z,9.13
2018-03-14T23:57:52.336Z,8.20
